Time,TemperatureF,DewpointF,PressureIn,WindDirection,WindDirectionDegrees,WindSpeedMPH,WindSpeedGustMPH,Humidity,HourlyPrecipIn,Conditions,Clouds,dailyrainin,SolarRadiationWatts/m^2,SoftwareType,DateUTC
2013-08-02 00:02:00,61.0,-99.9,-100.00,SSW,193,1.0,8.0,0,0.00,,,0.00,0.000000,,2013-08-02 07:02:00,
2013-08-02 00:33:00,58.0,-99.9,-100.00,North,9,0.0,5.0,0,0.00,,,0.00,0.000000,,2013-08-02 07:33:00,
2013-08-02 00:44:00,58.0,-99.9,-100.00,North,9,0.0,5.0,0,0.00,,,0.00,0.000000,,2013-08-02 07:44:00,
2013-08-02 00:53:00,58.0,-99.9,-100.00,North,9,0.0,5.0,0,0.00,,,0.00,0.000000,,2013-08-02 07:53:00,
2013-08-02 01:02:00,58.0,-99.9,-100.00,North,9,0.0,5.0,0,0.00,,,0.00,0.000000,,2013-08-02 08:02:00,
2013-08-02 01:22:00,59.0,-99.9,-100.00,South,171,3.0,7.0,0,0.00,,,0.00,0.000000,,2013-08-02 08:22:00,
2013-08-02 01:33:00,59.0,-99.9,-100.00,South,171,3.0,7.0,0,0.00,,,0.00,0.000000,,2013-08-02 08:33:00,
2013-08-02 01:44:00,59.0,-99.9,-100.00,South,171,3.0,7.0,0,0.00,,,0.00,0.000000,,2013-08-02 08:44:00,
2013-08-02 01:54:00,59.0,-99.9,-100.00,South,171,3.0,7.0,0,0.00,,,0.00,0.000000,,2013-08-02 08:54:00,
2013-08-02 02:02:00,59.0,-99.9,-100.00,South,171,3.0,7.0,0,0.00,,,0.00,0.000000,,2013-08-02 09:02:00,
2013-08-02 02:03:00,61.0,-99.9,-100.00,South,178,4.0,7.0,0,0.00,,,0.00,0.000000,,2013-08-02 09:03:00,
2013-08-02 02:33:00,61.0,-99.9,-100.00,South,178,4.0,7.0,0,0.00,,,0.00,0.000000,,2013-08-02 09:33:00,
2013-08-02 02:44:00,61.0,-99.9,-100.00,South,178,4.0,7.0,0,0.00,,,0.00,0.000000,,2013-08-02 09:44:00,
2013-08-02 02:53:00,61.0,-99.9,-100.00,South,178,4.0,7.0,0,0.00,,,0.00,0.000000,,2013-08-02 09:53:00,
2013-08-02 03:23:00,59.0,-99.9,-100.00,South,173,5.0,9.0,0,0.00,,,0.00,0.000000,,2013-08-02 10:23:00,
2013-08-02 03:33:00,59.0,-99.9,-100.00,South,173,5.0,9.0,0,0.00,,,0.00,0.000000,,2013-08-02 10:33:00,
2013-08-02 03:44:00,59.0,-99.9,-100.00,South,173,5.0,9.0,0,0.00,,,0.00,0.000000,,2013-08-02 10:44:00,
2013-08-02 03:52:00,59.0,-99.9,-100.00,South,173,5.0,9.0,0,0.00,,,0.00,0.000000,,2013-08-02 10:52:00,
2013-08-02 04:02:00,59.0,-99.9,-100.00,South,173,5.0,9.0,0,0.00,,,0.00,0.000000,,2013-08-02 11:02:00,
2013-08-02 04:43:00,60.0,-99.9,-100.00,South,187,3.0,9.0,0,0.00,,,0.00,0.000000,,2013-08-02 11:43:00,
2013-08-02 04:52:00,60.0,-99.9,-100.00,South,187,3.0,9.0,0,0.00,,,0.00,0.000000,,2013-08-02 11:52:00,
2013-08-02 05:02:00,60.0,-99.9,-100.00,South,187,3.0,9.0,0,0.00,,,0.00,0.000000,,2013-08-02 12:02:00,
2013-08-02 05:03:00,59.0,-99.9,-100.00,South,191,2.0,7.0,0,0.00,,,0.00,0.000000,,2013-08-02 12:03:00,
2013-08-02 05:33:00,59.0,-99.9,-100.00,South,191,2.0,7.0,0,0.00,,,0.00,0.000000,,2013-08-02 12:33:00,
2013-08-02 05:43:00,59.0,-99.9,-100.00,South,191,2.0,7.0,0,0.00,,,0.00,0.000000,,2013-08-02 12:43:00,
2013-08-02 05:52:00,59.0,-99.9,-100.00,South,191,2.0,7.0,0,0.00,,,0.00,0.000000,,2013-08-02 12:52:00,
2013-08-02 06:23:00,61.0,-99.9,-100.00,South,185,4.0,7.0,0,0.00,,,0.00,5.000000,,2013-08-02 13:23:00,
2013-08-02 07:02:00,61.0,-99.9,-100.00,South,185,4.0,7.0,0,0.00,,,0.00,5.000000,,2013-08-02 14:02:00,
2013-08-02 07:03:00,63.0,-99.9,-100.00,SSW,198,2.0,8.0,0,0.00,,,0.00,82.000000,,2013-08-02 14:03:00,
2013-08-02 07:53:00,63.0,-99.9,-100.00,SSW,198,2.0,8.0,0,0.00,,,0.00,82.000000,,2013-08-02 14:53:00,
2013-08-02 08:32:00,67.0,-99.9,-100.00,SSW,210,2.0,6.0,0,0.00,,,0.00,243.000000,,2013-08-02 15:32:00,
2013-08-02 08:43:00,67.0,-99.9,-100.00,SSW,210,2.0,6.0,0,0.00,,,0.00,243.000000,,2013-08-02 15:43:00,
2013-08-02 08:52:00,67.0,-99.9,-100.00,SSW,210,2.0,6.0,0,0.00,,,0.00,243.000000,,2013-08-02 15:52:00,
2013-08-02 09:02:00,67.0,-99.9,-100.00,SSW,210,2.0,6.0,0,0.00,,,0.00,243.000000,,2013-08-02 16:02:00,
2013-08-02 09:32:00,71.0,-99.9,-100.00,SSW,204,2.0,11.0,0,0.00,,,-99.99,457.000000,,2013-08-02 16:32:00,
2013-08-02 09:43:00,71.0,-99.9,-100.00,SSW,204,2.0,11.0,0,0.00,,,-99.99,457.000000,,2013-08-02 16:43:00,
2013-08-02 09:53:00,71.0,-99.9,-100.00,SSW,204,2.0,11.0,0,0.00,,,-99.99,457.000000,,2013-08-02 16:53:00,
2013-08-02 10:02:00,71.0,-99.9,-100.00,SSW,204,2.0,11.0,0,0.00,,,-99.99,457.000000,,2013-08-02 17:02:00,
2013-08-02 10:35:00,71.0,-99.9,-100.00,WSW,241,3.0,10.0,0,0.00,,,0.00,399.000000,,2013-08-02 17:35:00,
2013-08-02 10:43:00,71.0,-99.9,-100.00,WSW,241,3.0,10.0,0,0.00,,,0.00,399.000000,,2013-08-02 17:43:00,
2013-08-02 10:52:00,71.0,-99.9,-100.00,WSW,241,3.0,10.0,0,0.00,,,0.00,399.000000,,2013-08-02 17:52:00,
2013-08-02 11:02:00,71.0,-99.9,-100.00,WSW,241,3.0,10.0,0,0.00,,,0.00,399.000000,,2013-08-02 18:02:00,
2013-08-02 11:33:00,77.0,-99.9,-100.00,South,187,6.0,16.0,0,0.00,,,0.00,855.000000,,2013-08-02 18:33:00,
2013-08-02 11:43:00,77.0,-99.9,-100.00,South,187,6.0,16.0,0,0.00,,,0.00,855.000000,,2013-08-02 18:43:00,
2013-08-02 11:52:00,77.0,-99.9,-100.00,South,187,6.0,16.0,0,0.00,,,0.00,855.000000,,2013-08-02 18:52:00,
2013-08-02 12:02:00,77.0,-99.9,-100.00,South,187,6.0,16.0,0,0.00,,,0.00,855.000000,,2013-08-02 19:02:00,
2013-08-02 12:33:00,79.0,-99.9,-100.00,WSW,238,6.0,14.0,0,0.00,,,0.00,816.000000,,2013-08-02 19:33:00,
2013-08-02 12:43:00,79.0,-99.9,-100.00,WSW,238,6.0,14.0,0,0.00,,,0.00,816.000000,,2013-08-02 19:43:00,
2013-08-02 12:52:00,79.0,-99.9,-100.00,WSW,238,6.0,14.0,0,0.00,,,0.00,816.000000,,2013-08-02 19:52:00,
2013-08-02 13:02:00,79.0,-99.9,-100.00,WSW,238,6.0,14.0,0,0.00,,,0.00,816.000000,,2013-08-02 20:02:00,
2013-08-02 13:03:00,80.0,-99.9,-100.00,NE,55,5.0,18.0,0,0.00,,,0.00,1056.000000,,2013-08-02 20:03:00,
2013-08-02 13:33:00,80.0,-99.9,-100.00,NE,55,5.0,18.0,0,0.00,,,0.00,1056.000000,,2013-08-02 20:33:00,
2013-08-02 13:43:00,80.0,-99.9,-100.00,NE,55,5.0,18.0,0,0.00,,,0.00,1056.000000,,2013-08-02 20:43:00,
2013-08-02 13:52:00,80.0,-99.9,-100.00,NE,55,5.0,18.0,0,0.00,,,0.00,1056.000000,,2013-08-02 20:52:00,
2013-08-02 14:03:00,79.0,-99.9,-100.00,NNW,345,5.0,16.0,0,0.00,,,0.00,934.000000,,2013-08-02 21:03:00,
2013-08-02 14:33:00,79.0,-99.9,-100.00,NNW,345,5.0,16.0,0,0.00,,,0.00,934.000000,,2013-08-02 21:33:00,
2013-08-02 14:43:00,79.0,-99.9,-100.00,NNW,345,5.0,16.0,0,0.00,,,0.00,934.000000,,2013-08-02 21:43:00,
2013-08-02 14:53:00,79.0,-99.9,-100.00,NNW,345,5.0,16.0,0,0.00,,,0.00,934.000000,,2013-08-02 21:53:00,
2013-08-02 15:33:00,82.0,-99.9,-100.00,SSW,210,6.0,16.0,0,0.00,,,0.00,922.000000,,2013-08-02 22:33:00,
2013-08-02 15:43:00,82.0,-99.9,-100.00,SSW,210,6.0,16.0,0,0.00,,,0.00,922.000000,,2013-08-02 22:43:00,
2013-08-02 15:52:00,82.0,-99.9,-100.00,SSW,210,6.0,16.0,0,0.00,,,0.00,922.000000,,2013-08-02 22:52:00,
2013-08-02 16:32:00,82.0,-99.9,-100.00,WSW,252,5.0,18.0,0,-99.99,,,0.00,788.000000,,2013-08-02 23:32:00,
2013-08-02 16:44:00,82.0,-99.9,-100.00,WSW,252,5.0,18.0,0,-99.99,,,0.00,788.000000,,2013-08-02 23:44:00,
2013-08-02 17:03:00,64.0,-99.9,-100.00,SE,144,19.0,31.0,0,-99.99,,,0.00,251.000000,,2013-08-03 00:03:00,
2013-08-02 17:33:00,64.0,-99.9,-100.00,SE,144,19.0,31.0,0,-99.99,,,0.00,251.000000,,2013-08-03 00:33:00,
2013-08-02 17:43:00,64.0,-99.9,-100.00,SE,144,19.0,31.0,0,-99.99,,,0.00,251.000000,,2013-08-03 00:43:00,
2013-08-02 17:52:00,64.0,-99.9,-100.00,SE,144,19.0,31.0,0,-99.99,,,0.00,251.000000,,2013-08-03 00:52:00,
2013-08-02 18:33:00,67.0,-99.9,-100.00,SSE,167,5.0,26.0,0,0.00,,,0.00,181.000000,,2013-08-03 01:33:00,
2013-08-02 18:43:00,67.0,-99.9,-100.00,SSE,167,5.0,26.0,0,0.00,,,0.00,181.000000,,2013-08-03 01:43:00,
2013-08-02 18:53:00,67.0,-99.9,-100.00,SSE,167,5.0,26.0,0,0.00,,,0.00,181.000000,,2013-08-03 01:53:00,
2013-08-02 19:02:00,67.0,-99.9,-100.00,SSE,167,5.0,26.0,0,0.00,,,0.00,181.000000,,2013-08-03 02:02:00,
2013-08-02 19:03:00,65.0,-99.9,-100.00,NNE,30,5.0,13.0,0,0.00,,,0.00,95.000000,,2013-08-03 02:03:00,
2013-08-02 19:32:00,65.0,-99.9,-100.00,NNE,30,5.0,13.0,0,0.00,,,0.00,95.000000,,2013-08-03 02:32:00,
2013-08-02 19:43:00,65.0,-99.9,-100.00,NNE,30,5.0,13.0,0,0.00,,,0.00,95.000000,,2013-08-03 02:43:00,
2013-08-02 19:53:00,65.0,-99.9,-100.00,NNE,30,5.0,13.0,0,0.00,,,0.00,95.000000,,2013-08-03 02:53:00,
2013-08-02 20:32:00,63.0,-99.9,-100.00,West,281,0.0,9.0,0,0.00,,,0.00,9.000000,,2013-08-03 03:32:00,
2013-08-02 20:43:00,63.0,-99.9,-100.00,West,281,0.0,9.0,0,0.00,,,0.00,9.000000,,2013-08-03 03:43:00,
2013-08-02 20:53:00,63.0,-99.9,-100.00,West,281,0.0,9.0,0,0.00,,,0.00,9.000000,,2013-08-03 03:53:00,
2013-08-02 21:02:00,63.0,-99.9,-100.00,West,281,0.0,9.0,0,0.00,,,0.00,9.000000,,2013-08-03 04:02:00,
2013-08-02 21:32:00,60.0,-99.9,-100.00,WSW,243,0.0,4.0,0,0.00,,,0.00,0.000000,,2013-08-03 04:32:00,
2013-08-02 21:43:00,60.0,-99.9,-100.00,WSW,243,0.0,4.0,0,0.00,,,0.00,0.000000,,2013-08-03 04:43:00,
2013-08-02 21:53:00,60.0,-99.9,-100.00,WSW,243,0.0,4.0,0,0.00,,,0.00,0.000000,,2013-08-03 04:53:00,
2013-08-02 22:02:00,60.0,-99.9,-100.00,WSW,243,0.0,4.0,0,0.00,,,0.00,0.000000,,2013-08-03 05:02:00,
2013-08-02 22:32:00,61.0,-99.9,-100.00,SSE,154,2.0,5.0,0,0.00,,,0.00,0.000000,,2013-08-03 05:32:00,
2013-08-02 22:43:00,61.0,-99.9,-100.00,SSE,154,2.0,5.0,0,0.00,,,0.00,0.000000,,2013-08-03 05:43:00,
2013-08-02 22:52:00,61.0,-99.9,-100.00,SSE,154,2.0,5.0,0,0.00,,,0.00,0.000000,,2013-08-03 05:52:00,
2013-08-02 23:02:00,61.0,-99.9,-100.00,SSE,154,2.0,5.0,0,0.00,,,0.00,0.000000,,2013-08-03 06:02:00,
2013-08-02 23:33:00,62.0,-99.9,-100.00,SSW,193,2.0,10.0,0,0.00,,,0.00,0.000000,,2013-08-03 06:33:00,
2013-08-02 23:42:00,62.0,-99.9,-100.00,SSW,193,2.0,10.0,0,0.00,,,0.00,0.000000,,2013-08-03 06:42:00,
2013-08-02 23:52:00,62.0,-99.9,-100.00,SSW,193,2.0,10.0,0,0.00,,,0.00,0.000000,,2013-08-03 06:52:00,